createdAt,value
2017-08-13T00:00:04.649Z,14.60
2017-08-13T00:02:33.108Z,14.60
2017-08-13T00:05:01.604Z,14.70
2017-08-13T00:07:30.126Z,14.70
2017-08-13T00:09:58.460Z,14.70
2017-08-13T00:12:26.721Z,14.70
2017-08-13T00:14:55.022Z,14.60
2017-08-13T00:17:23.275Z,14.60
2017-08-13T00:19:51.917Z,14.60
2017-08-13T00:22:20.272Z,14.70
2017-08-13T00:24:48.559Z,14.70
2017-08-13T00:27:17.397Z,14.70
2017-08-13T00:29:45.640Z,14.70
2017-08-13T00:32:14.076Z,14.80
2017-08-13T00:34:42.589Z,14.70
2017-08-13T00:37:11.073Z,14.80
2017-08-13T00:39:39.853Z,14.80
2017-08-13T00:42:08.594Z,14.80
2017-08-13T00:44:36.893Z,14.70
2017-08-13T00:47:05.161Z,14.70
2017-08-13T00:49:33.690Z,14.70
2017-08-13T00:52:02.043Z,14.80
2017-08-13T00:54:30.377Z,14.70
2017-08-13T00:56:58.725Z,14.60
2017-08-13T00:59:27.021Z,14.70
2017-08-13T01:01:55.518Z,14.70
2017-08-13T01:04:23.810Z,14.70
2017-08-13T01:06:52.967Z,14.60
2017-08-13T01:09:22.263Z,14.60
2017-08-13T01:11:50.686Z,14.50
2017-08-13T01:14:18.947Z,14.50
2017-08-13T01:16:47.307Z,14.60
2017-08-13T01:19:15.839Z,14.60
2017-08-13T01:21:44.071Z,14.60
2017-08-13T01:24:13.209Z,14.80
2017-08-13T01:26:41.522Z,14.80
2017-08-13T01:29:10.051Z,14.80
2017-08-13T01:31:38.693Z,14.90
2017-08-13T01:34:07.141Z,14.90
2017-08-13T01:36:35.403Z,14.80
2017-08-13T01:39:03.741Z,14.80
2017-08-13T01:41:32.271Z,14.70
2017-08-13T01:44:00.586Z,14.70
2017-08-13T01:46:28.844Z,14.70
2017-08-13T01:48:57.563Z,14.70
2017-08-13T01:51:25.835Z,14.80
2017-08-13T01:53:54.430Z,14.70
2017-08-13T01:56:23.155Z,14.70
2017-08-13T01:58:51.491Z,14.70
2017-08-13T02:01:20.109Z,14.70
2017-08-13T02:03:48.535Z,14.80
2017-08-13T02:06:16.860Z,14.80
2017-08-13T02:08:45.537Z,14.80
2017-08-13T02:11:13.796Z,14.80
2017-08-13T02:13:42.767Z,14.80
2017-08-13T02:16:11.015Z,14.80
2017-08-13T02:18:39.628Z,14.80
2017-08-13T02:21:07.880Z,14.70
2017-08-13T02:23:36.131Z,14.90
2017-08-13T02:26:04.443Z,14.90
2017-08-13T02:28:33.099Z,14.90
2017-08-13T02:31:01.555Z,14.90
2017-08-13T02:33:30.013Z,14.90
2017-08-13T02:35:58.528Z,14.90
2017-08-13T02:38:27.191Z,14.90
2017-08-13T02:40:55.456Z,14.90
2017-08-13T02:43:24.272Z,14.80
2017-08-13T02:45:52.792Z,14.80
2017-08-13T02:48:21.101Z,14.80
2017-08-13T02:50:49.428Z,14.80
2017-08-13T02:53:17.736Z,14.80
2017-08-13T02:55:46.627Z,14.90
2017-08-13T02:58:15.240Z,15.00
2017-08-13T03:00:44.128Z,15.00
2017-08-13T03:03:12.595Z,15.00
2017-08-13T03:05:41.220Z,15.00
2017-08-13T03:08:09.521Z,15.00
2017-08-13T03:10:37.813Z,15.00
2017-08-13T03:13:06.220Z,15.10
2017-08-13T03:15:34.608Z,15.00
2017-08-13T03:18:02.972Z,15.10
2017-08-13T03:20:31.388Z,15.10
2017-08-13T03:22:59.887Z,15.10
2017-08-13T03:25:28.276Z,15.10
2017-08-13T03:27:56.836Z,15.20
2017-08-13T03:30:25.656Z,15.20
2017-08-13T03:32:55.019Z,15.20
2017-08-13T03:35:23.282Z,15.20
2017-08-13T03:37:51.535Z,15.10
2017-08-13T03:40:20.271Z,15.20
2017-08-13T03:42:48.605Z,15.20
2017-08-13T03:45:16.919Z,15.20
2017-08-13T03:47:45.235Z,15.20
2017-08-13T03:50:13.534Z,15.10
2017-08-13T03:52:41.944Z,15.00
2017-08-13T03:55:10.579Z,15.10
2017-08-13T03:57:38.978Z,15.00
2017-08-13T04:00:07.804Z,15.00
2017-08-13T04:02:36.250Z,15.10
2017-08-13T04:05:04.631Z,15.10
2017-08-13T04:07:33.033Z,15.10
2017-08-13T04:10:01.327Z,15.20
2017-08-13T04:12:29.966Z,15.20
2017-08-13T04:14:58.467Z,15.20
2017-08-13T04:17:26.904Z,15.20
2017-08-13T04:19:55.244Z,15.20
2017-08-13T04:22:23.749Z,15.20
2017-08-13T04:24:52.875Z,15.20
2017-08-13T04:27:21.804Z,15.20
2017-08-13T04:29:50.310Z,15.20
2017-08-13T04:32:18.691Z,15.10
2017-08-13T04:34:46.984Z,15.00
2017-08-13T04:37:15.283Z,15.00
2017-08-13T04:39:43.617Z,15.00
2017-08-13T04:42:11.916Z,15.10
2017-08-13T04:44:40.165Z,15.20
2017-08-13T04:47:09.279Z,15.30
2017-08-13T04:49:37.520Z,15.30
2017-08-13T04:52:05.779Z,15.30
2017-08-13T04:54:34.084Z,15.40
2017-08-13T04:57:02.344Z,15.40
2017-08-13T04:59:30.653Z,15.50
2017-08-13T05:01:59.398Z,15.60
2017-08-13T05:04:28.766Z,15.60
2017-08-13T05:06:57.554Z,15.70
2017-08-13T05:09:25.865Z,15.80
2017-08-13T05:11:54.453Z,15.80
2017-08-13T05:14:22.983Z,15.80
2017-08-13T05:16:51.235Z,15.80
2017-08-13T05:19:20.024Z,15.80
2017-08-13T05:21:48.320Z,15.80
2017-08-13T05:24:17.029Z,15.80
2017-08-13T05:26:45.409Z,15.70
2017-08-13T05:29:14.178Z,15.70
2017-08-13T05:31:42.932Z,15.90
2017-08-13T05:34:11.209Z,15.90
2017-08-13T05:36:39.560Z,15.90
2017-08-13T05:39:07.801Z,15.90
2017-08-13T05:41:36.303Z,15.90
2017-08-13T05:44:04.588Z,16.00
2017-08-13T05:46:33.889Z,16.10
2017-08-13T05:49:02.999Z,16.10
2017-08-13T05:51:32.132Z,16.10
2017-08-13T05:54:00.420Z,16.00
2017-08-13T05:56:28.779Z,16.00
2017-08-13T05:58:57.144Z,16.10
2017-08-13T06:01:25.460Z,16.10
2017-08-13T06:03:53.851Z,16.20
2017-08-13T06:06:22.256Z,16.30
2017-08-13T06:08:50.746Z,16.40
2017-08-13T06:11:19.720Z,16.50
2017-08-13T06:13:48.291Z,16.40
2017-08-13T06:16:16.699Z,16.40
2017-08-13T06:18:45.844Z,16.60
2017-08-13T06:21:15.453Z,16.90
2017-08-13T06:23:43.999Z,16.90
2017-08-13T06:26:12.366Z,16.90
2017-08-13T06:28:40.890Z,17.00
2017-08-13T06:31:09.503Z,17.00
2017-08-13T06:33:37.938Z,17.10
2017-08-13T06:36:06.485Z,17.20
2017-08-13T06:38:35.200Z,17.20
2017-08-13T06:41:03.446Z,17.50
2017-08-13T06:43:32.089Z,17.60
2017-08-13T06:46:00.420Z,17.60
2017-08-13T06:48:28.728Z,17.60
2017-08-13T06:50:57.006Z,17.90
2017-08-13T06:53:25.763Z,17.90
2017-08-13T06:55:54.353Z,17.90
2017-08-13T06:58:22.878Z,18.20
2017-08-13T07:00:51.192Z,18.30
2017-08-13T07:03:19.549Z,18.30
2017-08-13T07:05:48.202Z,18.60
2017-08-13T07:08:16.470Z,18.60
2017-08-13T07:10:44.717Z,18.40
2017-08-13T07:13:13.183Z,18.20
2017-08-13T07:15:41.884Z,18.10
2017-08-13T07:18:10.514Z,18.40
2017-08-13T07:20:38.769Z,18.80
2017-08-13T07:23:07.103Z,18.90
2017-08-13T07:25:35.360Z,19.10
2017-08-13T07:28:03.784Z,19.00
2017-08-13T07:30:33.089Z,19.00
2017-08-13T07:33:01.600Z,19.10
2017-08-13T07:35:30.243Z,19.20
2017-08-13T07:37:58.531Z,19.20
2017-08-13T07:40:26.819Z,19.20
2017-08-13T07:42:55.172Z,19.00
2017-08-13T07:45:23.678Z,19.10
2017-08-13T07:47:52.033Z,18.70
2017-08-13T07:50:20.581Z,18.80
2017-08-13T07:52:49.463Z,18.80
2017-08-13T07:55:17.748Z,18.90
2017-08-13T07:57:46.064Z,18.80
2017-08-13T08:00:14.320Z,18.70
2017-08-13T08:02:42.672Z,18.60
2017-08-13T08:05:11.026Z,18.70
2017-08-13T08:07:39.750Z,18.70
2017-08-13T08:10:08.001Z,19.00
2017-08-13T08:12:36.311Z,18.80
2017-08-13T08:17:42.848Z,19.10
2017-08-13T08:20:11.175Z,19.10
2017-08-13T08:22:39.519Z,18.80
2017-08-13T08:25:07.777Z,18.80
2017-08-13T08:27:36.236Z,18.90
2017-08-13T08:30:04.935Z,19.10
2017-08-13T08:32:33.204Z,19.50
2017-08-13T08:35:01.592Z,19.60
2017-08-13T08:37:30.064Z,19.50
2017-08-13T08:39:58.308Z,19.50
2017-08-13T08:42:26.586Z,19.70
2017-08-13T08:44:54.928Z,19.60
2017-08-13T08:47:23.257Z,19.80
2017-08-13T08:49:51.532Z,20.10
2017-08-13T08:52:19.856Z,20.20
2017-08-13T08:54:48.176Z,20.10
2017-08-13T08:57:16.641Z,19.90
2017-08-13T08:59:46.327Z,20.00
2017-08-13T09:02:15.143Z,20.30
2017-08-13T09:04:43.957Z,20.30
2017-08-13T09:07:13.190Z,20.30
2017-08-13T09:09:41.416Z,20.10
2017-08-13T09:12:09.676Z,20.30
2017-08-13T09:14:37.945Z,19.80
2017-08-13T09:17:06.197Z,20.00
2017-08-13T09:19:34.565Z,20.30
2017-08-13T09:22:02.912Z,20.40
2017-08-13T09:24:31.259Z,20.60
2017-08-13T09:26:59.907Z,20.80
2017-08-13T09:29:28.342Z,20.70
2017-08-13T09:31:56.767Z,20.80
2017-08-13T09:34:25.259Z,20.60
2017-08-13T09:36:53.556Z,20.70
2017-08-13T09:39:21.980Z,20.60
2017-08-13T09:41:50.259Z,20.70
2017-08-13T09:44:18.889Z,20.80
2017-08-13T09:46:47.307Z,20.80
2017-08-13T09:49:15.578Z,20.80
2017-08-13T09:51:43.876Z,20.70
2017-08-13T09:54:12.130Z,20.70
2017-08-13T09:56:40.507Z,21.00
2017-08-13T09:59:08.837Z,21.10
2017-08-13T10:01:37.399Z,21.40
2017-08-13T10:04:06.140Z,21.60
2017-08-13T10:06:34.607Z,21.60
2017-08-13T10:09:03.033Z,21.80
2017-08-13T10:11:31.586Z,21.90
2017-08-13T10:13:59.855Z,21.70
2017-08-13T10:16:28.639Z,21.60
2017-08-13T10:18:57.137Z,21.60
2017-08-13T10:21:25.528Z,21.80
2017-08-13T10:23:54.108Z,21.80
2017-08-13T10:26:22.416Z,21.90
2017-08-13T10:28:50.828Z,21.80
2017-08-13T10:31:19.312Z,21.90
2017-08-13T10:33:47.950Z,22.40
2017-08-13T10:36:16.531Z,22.70
2017-08-13T10:38:45.342Z,23.00
2017-08-13T10:41:14.069Z,23.00
2017-08-13T10:43:42.311Z,23.00
2017-08-13T10:46:10.670Z,23.20
2017-08-13T10:48:39.140Z,23.60
2017-08-13T10:51:07.491Z,23.90
2017-08-13T10:53:35.931Z,23.50
2017-08-13T10:56:04.185Z,22.90
2017-08-13T10:58:32.763Z,22.30
2017-08-13T11:01:02.432Z,21.60
2017-08-13T11:03:31.051Z,21.70
2017-08-13T11:05:59.312Z,21.60
2017-08-13T11:08:27.669Z,21.60
2017-08-13T11:10:56.084Z,21.60
2017-08-13T11:13:24.863Z,21.70
2017-08-13T11:15:53.171Z,22.00
2017-08-13T11:18:22.020Z,22.70
2017-08-13T11:20:50.424Z,22.70
2017-08-13T11:23:19.284Z,23.80
2017-08-13T11:25:47.585Z,23.80
2017-08-13T11:28:16.411Z,23.50
2017-08-13T11:30:44.867Z,23.50
2017-08-13T11:33:13.208Z,23.40
2017-08-13T11:35:42.017Z,23.50
2017-08-13T11:38:10.856Z,23.40
2017-08-13T11:40:39.912Z,23.40
2017-08-13T11:43:09.393Z,22.70
2017-08-13T11:45:37.694Z,22.70
2017-08-13T11:48:07.335Z,22.80
2017-08-13T11:50:35.960Z,22.60
2017-08-13T11:53:04.400Z,22.40
2017-08-13T11:55:33.165Z,22.30
2017-08-13T11:58:01.821Z,22.30
2017-08-13T12:00:30.194Z,22.10
2017-08-13T12:02:58.823Z,22.40
2017-08-13T12:05:27.180Z,23.00
2017-08-13T12:07:55.515Z,23.60
2017-08-13T12:10:24.401Z,23.70
2017-08-13T12:12:53.279Z,25.10
2017-08-13T12:15:21.591Z,25.10
2017-08-13T12:17:50.147Z,25.90
2017-08-13T12:20:18.506Z,27.00
2017-08-13T12:22:47.292Z,27.70
2017-08-13T12:25:16.231Z,28.00
2017-08-13T12:27:44.648Z,27.80
2017-08-13T12:30:14.242Z,28.00
2017-08-13T12:35:17.252Z,27.90
2017-08-13T12:37:45.617Z,27.60
2017-08-13T12:40:14.267Z,25.80
2017-08-13T12:42:42.604Z,25.80
2017-08-13T12:45:11.333Z,25.00
2017-08-13T12:47:39.642Z,24.40
2017-08-13T12:50:13.955Z,24.00
2017-08-13T12:52:48.333Z,23.70
2017-08-13T12:58:01.071Z,23.40
2017-08-13T13:00:35.237Z,23.80
2017-08-13T13:03:09.424Z,24.40
2017-08-13T13:05:44.153Z,25.30
2017-08-13T13:08:18.380Z,25.30
2017-08-13T13:10:52.889Z,25.00
2017-08-13T13:13:27.569Z,24.60
2017-08-13T13:16:01.749Z,24.10
2017-08-13T13:18:35.849Z,24.00
2017-08-13T13:21:10.304Z,24.70
2017-08-13T13:23:44.416Z,25.10
2017-08-13T13:26:18.734Z,24.50
2017-08-13T13:28:52.867Z,23.90
2017-08-13T13:31:27.125Z,24.60
2017-08-13T13:34:01.386Z,24.90
2017-08-13T13:36:35.516Z,25.00
2017-08-13T13:39:10.473Z,24.90
2017-08-13T13:41:47.033Z,25.30
2017-08-13T13:44:21.180Z,26.10
2017-08-13T13:46:55.712Z,26.40
2017-08-13T13:49:30.286Z,25.50
2017-08-13T13:52:08.203Z,24.80
2017-08-13T13:54:42.324Z,24.40
2017-08-13T13:57:16.641Z,23.90
2017-08-13T13:59:50.769Z,23.80
2017-08-13T14:02:25.071Z,23.70
2017-08-13T14:04:59.169Z,24.10
2017-08-13T14:07:33.440Z,23.80
2017-08-13T14:10:08.115Z,24.30
2017-08-13T14:12:42.270Z,24.30
2017-08-13T14:15:16.472Z,23.50
2017-08-13T14:17:50.832Z,23.70
2017-08-13T14:20:24.979Z,23.80
2017-08-13T14:22:59.236Z,23.80
2017-08-13T14:25:33.457Z,23.70
2017-08-13T14:28:07.664Z,23.60
2017-08-13T14:30:41.799Z,23.70
2017-08-13T14:33:16.095Z,23.90
2017-08-13T14:35:50.704Z,23.80
2017-08-13T14:38:24.930Z,24.00
2017-08-13T14:40:59.059Z,24.10
2017-08-13T14:43:33.359Z,24.20
2017-08-13T14:46:07.504Z,24.10
2017-08-13T14:48:41.652Z,23.60
2017-08-13T14:51:15.792Z,22.90
2017-08-13T14:53:51.065Z,23.00
2017-08-13T14:56:25.289Z,23.00
2017-08-13T14:59:00.077Z,23.10
2017-08-13T15:01:34.714Z,23.40
2017-08-13T15:04:09.037Z,23.40
2017-08-13T15:06:43.604Z,25.10
2017-08-13T15:09:17.820Z,25.10
2017-08-13T15:11:52.128Z,26.00
2017-08-13T15:14:26.298Z,24.80
2017-08-13T15:17:00.598Z,24.80
2017-08-13T15:19:34.724Z,25.80
2017-08-13T15:22:09.157Z,26.30
2017-08-13T15:24:43.371Z,25.70
2017-08-13T15:27:17.631Z,26.30
2017-08-13T15:29:51.842Z,25.50
2017-08-13T15:32:26.126Z,25.60
2017-08-13T15:35:00.283Z,26.70
2017-08-13T15:37:38.952Z,27.40
2017-08-13T15:40:13.199Z,28.10
2017-08-13T15:42:48.265Z,27.10
2017-08-13T15:45:22.526Z,26.10
2017-08-13T15:47:56.743Z,27.20
2017-08-13T15:50:32.194Z,27.80
2017-08-13T15:53:06.471Z,27.80
2017-08-13T15:55:40.783Z,28.00
2017-08-13T15:58:15.084Z,27.20
2017-08-13T16:00:49.454Z,26.60
2017-08-13T16:03:23.720Z,26.90
2017-08-13T16:05:59.193Z,26.90
2017-08-13T16:08:33.413Z,25.80
2017-08-13T16:11:07.716Z,25.50
2017-08-13T16:13:41.865Z,25.30
2017-08-13T16:16:18.381Z,25.70
2017-08-13T16:18:52.547Z,25.20
2017-08-13T16:21:26.814Z,25.20
2017-08-13T16:24:00.927Z,24.90
2017-08-13T16:26:35.473Z,24.20
2017-08-13T16:29:10.072Z,23.50
2017-08-13T16:31:44.526Z,23.50
2017-08-13T16:34:18.979Z,23.70
2017-08-13T16:36:53.646Z,23.70
2017-08-13T16:39:27.795Z,23.10
2017-08-13T16:42:02.275Z,22.50
2017-08-13T16:44:36.516Z,22.50
2017-08-13T16:47:10.862Z,22.70
2017-08-13T16:49:45.439Z,22.90
2017-08-13T16:52:19.809Z,22.90
2017-08-13T16:54:54.083Z,23.10
2017-08-13T16:57:28.251Z,23.10
2017-08-13T17:00:02.398Z,22.90
2017-08-13T17:05:14.967Z,22.90
2017-08-13T17:07:43.357Z,22.80
2017-08-13T17:10:11.812Z,22.50
2017-08-13T17:12:40.172Z,22.30
2017-08-13T17:15:08.586Z,22.40
2017-08-13T17:17:37.178Z,22.20
2017-08-13T17:20:12.409Z,22.40
2017-08-13T17:22:46.798Z,22.40
2017-08-13T17:25:21.179Z,22.30
2017-08-13T17:27:55.416Z,22.10
2017-08-13T17:30:23.690Z,22.00
2017-08-13T17:32:51.959Z,22.00
2017-08-13T17:35:20.557Z,22.10
2017-08-13T17:37:54.706Z,22.00
2017-08-13T17:40:29.853Z,21.80
2017-08-13T17:43:04.309Z,21.80
2017-08-13T17:45:38.767Z,21.60
2017-08-13T17:48:13.279Z,21.60
2017-08-13T17:50:48.970Z,21.60
2017-08-13T17:53:23.477Z,21.60
2017-08-13T17:55:57.624Z,21.60
2017-08-13T17:58:32.725Z,21.50
2017-08-13T18:01:06.931Z,21.50
2017-08-13T18:03:35.326Z,21.50
2017-08-13T18:06:03.624Z,21.40
2017-08-13T18:08:31.954Z,21.40
2017-08-13T18:11:00.198Z,21.30
2017-08-13T18:13:28.640Z,21.30
2017-08-13T18:15:57.009Z,21.20
2017-08-13T18:18:25.263Z,21.20
2017-08-13T18:20:53.861Z,21.20
2017-08-13T18:23:22.465Z,21.20
2017-08-13T18:25:50.916Z,21.10
2017-08-13T18:28:19.301Z,21.20
2017-08-13T18:30:47.533Z,21.20
2017-08-13T18:33:15.788Z,21.10
2017-08-13T18:35:44.227Z,21.10
2017-08-13T18:38:12.572Z,21.00
2017-08-13T18:40:40.904Z,20.90
2017-08-13T18:43:09.319Z,20.80
2017-08-13T18:45:37.818Z,20.70
2017-08-13T18:48:06.150Z,20.70
2017-08-13T18:50:34.395Z,20.80
2017-08-13T18:53:03.728Z,20.80
2017-08-13T18:55:32.101Z,20.80
2017-08-13T18:58:00.352Z,20.80
2017-08-13T19:00:28.678Z,20.70
2017-08-13T19:02:57.165Z,20.70
2017-08-13T19:05:26.205Z,20.60
2017-08-13T19:07:54.475Z,20.60
2017-08-13T19:10:23.377Z,20.60
2017-08-13T19:12:52.175Z,20.40
2017-08-13T19:15:20.586Z,20.40
2017-08-13T19:17:49.140Z,20.30
2017-08-13T19:20:17.698Z,20.30
2017-08-13T19:22:46.224Z,20.20
2017-08-13T19:25:14.550Z,20.30
2017-08-13T19:27:43.262Z,20.20
2017-08-13T19:30:11.671Z,20.20
2017-08-13T19:32:41.205Z,20.20
2017-08-13T19:35:09.439Z,20.10
2017-08-13T19:37:38.447Z,20.10
2017-08-13T19:40:06.780Z,20.00
2017-08-13T19:42:35.309Z,19.80
2017-08-13T19:45:03.559Z,19.70
2017-08-13T19:47:32.386Z,19.60
2017-08-13T19:50:00.789Z,19.60
2017-08-13T19:52:29.428Z,19.60
2017-08-13T19:54:57.737Z,19.60
2017-08-13T19:57:26.057Z,19.50
2017-08-13T19:59:54.316Z,19.40
2017-08-13T20:02:22.632Z,19.30
2017-08-13T20:04:51.191Z,19.20
2017-08-13T20:07:19.491Z,19.30
2017-08-13T20:09:47.794Z,19.20
2017-08-13T20:12:16.654Z,19.10
2017-08-13T20:14:45.135Z,19.10
2017-08-13T20:17:13.388Z,19.00
2017-08-13T20:19:42.195Z,19.10
2017-08-13T20:22:10.465Z,19.00
2017-08-13T20:24:38.711Z,18.90
2017-08-13T20:27:06.977Z,18.90
2017-08-13T20:29:36.063Z,18.70
2017-08-13T20:32:04.392Z,18.70
2017-08-13T20:34:33.036Z,18.60
2017-08-13T20:37:01.483Z,18.60
2017-08-13T20:39:36.009Z,18.50
2017-08-13T20:42:10.185Z,18.40
2017-08-13T20:44:45.086Z,18.40
2017-08-13T20:47:14.220Z,18.40
2017-08-13T20:49:42.480Z,18.30
2017-08-13T20:52:14.549Z,18.30
2017-08-13T20:54:48.828Z,18.30
2017-08-13T20:57:23.071Z,18.30
2017-08-13T20:59:57.198Z,18.30
2017-08-13T21:02:31.620Z,18.30
2017-08-13T21:05:05.858Z,18.40
2017-08-13T21:07:40.090Z,18.50
2017-08-13T21:10:14.400Z,18.60
2017-08-13T21:12:48.577Z,18.50
2017-08-13T21:15:22.782Z,18.50
2017-08-13T21:17:57.193Z,18.50
2017-08-13T21:20:31.573Z,18.40
2017-08-13T21:23:05.907Z,18.40
2017-08-13T21:25:39.999Z,18.30
2017-08-13T21:28:14.271Z,18.40
2017-08-13T21:30:48.412Z,18.30
2017-08-13T21:33:22.630Z,18.30
2017-08-13T21:35:56.961Z,18.30
2017-08-13T21:38:31.107Z,18.20
2017-08-13T21:41:05.332Z,18.20
2017-08-13T21:43:39.647Z,18.20
2017-08-13T21:46:13.880Z,18.20
2017-08-13T21:48:42.159Z,18.10
2017-08-13T21:51:10.409Z,18.10
2017-08-13T21:53:38.720Z,18.10
2017-08-13T21:56:06.972Z,18.10
2017-08-13T21:58:35.212Z,18.00
2017-08-13T22:01:03.581Z,18.00
2017-08-13T22:03:39.423Z,18.00
2017-08-13T22:06:07.709Z,18.00
2017-08-13T22:08:35.973Z,17.90
2017-08-13T22:11:04.228Z,17.90
2017-08-13T22:13:32.875Z,17.90
2017-08-13T22:16:01.123Z,17.90
2017-08-13T22:18:29.491Z,17.80
2017-08-13T22:20:57.741Z,17.80
2017-08-13T22:23:25.992Z,17.80
2017-08-13T22:25:54.280Z,17.80
2017-08-13T22:28:22.552Z,17.80
2017-08-13T22:30:50.853Z,17.80
2017-08-13T22:33:19.119Z,17.80
2017-08-13T22:35:47.516Z,17.70
2017-08-13T22:38:15.773Z,17.70
2017-08-13T22:40:44.340Z,17.60
2017-08-13T22:43:12.928Z,17.60
2017-08-13T22:45:41.449Z,17.60
2017-08-13T22:48:09.808Z,17.50
2017-08-13T22:50:38.309Z,17.50
2017-08-13T22:53:06.579Z,17.60
2017-08-13T22:55:35.372Z,17.50
2017-08-13T22:58:03.946Z,17.50
2017-08-13T23:00:32.275Z,17.40
2017-08-13T23:03:00.557Z,17.30
2017-08-13T23:05:29.155Z,17.10
2017-08-13T23:07:57.660Z,17.10
2017-08-13T23:10:26.112Z,17.00
2017-08-13T23:12:54.480Z,17.00
2017-08-13T23:15:22.875Z,17.00
2017-08-13T23:17:51.576Z,16.90
2017-08-13T23:20:20.616Z,16.90
2017-08-13T23:22:49.119Z,16.90
2017-08-13T23:25:17.427Z,16.90
2017-08-13T23:27:46.070Z,16.70
2017-08-13T23:30:14.312Z,16.60
2017-08-13T23:35:17.443Z,16.50
2017-08-13T23:37:45.730Z,16.40
2017-08-13T23:40:14.046Z,16.40
2017-08-13T23:42:42.328Z,16.40
2017-08-13T23:45:10.675Z,16.30
2017-08-13T23:47:39.111Z,16.30
2017-08-13T23:50:07.636Z,16.30
2017-08-13T23:52:35.946Z,16.30
2017-08-13T23:55:04.400Z,16.20
2017-08-13T23:57:32.657Z,16.20
